Time;durP1;ratioP1;P1;durP2;ratioP2;P2;SDS_P1;SDS_P2;PMS_P1;PMS_P2;Temp;Humidity;BMP_temperature;BMP_pressure;BME280_temperature;BME280_humidity;BME280_pressure;Samples;Min_cycle;Max_cycle;Signal;HPM_P1;HPM_P2
2024/01/01 00:01:40;;;;;;;422.75;17.17;;;2.80;99.90;;;;;;21154574;28;20139;-51
2024/01/01 00:11:41;;;;;;;74.63;5.68;;;2.90;99.90;;;;;;21135487;28;20035;-54
2024/01/01 00:21:43;;;;;;;436.10;13.27;;;2.90;99.90;;;;;;21152876;28;20058;-52
2024/01/01 00:31:45;;;;;;;633.28;20.17;;;2.90;99.90;;;;;;21152091;28;20036;-43
2024/01/01 00:41:47;;;;;;;86.93;6.13;;;2.70;99.90;;;;;;21152307;28;20028;-53
2024/01/01 00:51:49;;;;;;;574.10;18.58;;;2.60;99.90;;;;;;21151287;28;20530;-55
2024/01/01 01:01:51;;;;;;;174.32;7.00;;;2.40;99.90;;;;;;21151281;28;20073;-50
2024/01/01 01:11:52;;;;;;;162.15;10.23;;;2.20;99.90;;;;;;21132534;28;20036;-52
2024/01/01 01:21:57;;;;;;;194.68;9.68;;;2.20;99.90;;;;;;21150022;28;20032;-45
2024/01/01 01:31:59;;;;;;;308.17;12.57;;;2.00;99.90;;;;;;21150050;28;20046;-54
2024/01/01 01:42:01;;;;;;;334.90;13.82;;;1.90;99.90;;;;;;21151617;28;20821;-49
2024/01/01 01:52:03;;;;;;;3.03;1.75;;;1.80;99.90;;;;;;21146174;28;20354;-47
2024/01/01 02:02:05;;;;;;;2.05;1.00;;;1.70;99.90;;;;;;21164405;28;20035;-52
2024/01/01 02:12:10;;;;;;;2.08;1.10;;;1.20;99.90;;;;;;21163048;28;20031;-50
2024/01/01 02:22:12;;;;;;;1.20;0.70;;;1.00;99.90;;;;;;21161910;28;20027;-49
2024/01/01 02:32:14;;;;;;;1.33;0.75;;;1.00;99.90;;;;;;21161705;28;20066;-53
2024/01/01 02:42:15;;;;;;;1.05;0.60;;;1.00;99.90;;;;;;21143157;28;20027;-47
2024/01/01 02:52:17;;;;;;;0.80;0.40;;;1.10;99.90;;;;;;21160297;28;20032;-51
2024/01/01 03:02:20;;;;;;;0.20;0.20;;;1.10;99.90;;;;;;21140993;28;20060;-54
2024/01/01 03:12:21;;;;;;;0.28;0.10;;;1.00;99.90;;;;;;21158472;28;20089;-48
2024/01/01 03:22:23;;;;;;;0.00;0.00;;;0.90;99.90;;;;;;21079779;28;20036;-53
2024/01/01 03:32:25;;;;;;;0.03;0.00;;;1.00;99.90;;;;;;21138523;28;20112;-50
2024/01/01 03:42:28;;;;;;;0.00;0.00;;;1.00;99.90;;;;;;21137867;28;20431;-52
2024/01/01 03:52:30;;;;;;;0.00;0.00;;;0.80;99.90;;;;;;21155400;28;20074;-54
2024/01/01 04:02:31;;;;;;;0.28;0.00;;;0.50;99.90;;;;;;21133003;28;20035;-53
2024/01/01 04:12:33;;;;;;;0.52;0.00;;;0.20;99.90;;;;;;21118918;28;20032;-44
2024/01/01 04:22:40;;;;;;;0.08;0.00;;;0.20;99.90;;;;;;21134427;28;20080;-44
2024/01/01 04:32:42;;;;;;;0.00;0.00;;;0.40;99.90;;;;;;21134155;28;20043;-53
2024/01/01 04:42:44;;;;;;;0.00;0.00;;;0.40;99.90;;;;;;21151763;28;20407;-44
2024/01/01 04:52:45;;;;;;;0.08;0.00;;;0.50;99.90;;;;;;21150920;28;20432;-50
2024/01/01 05:02:47;;;;;;;0.15;0.00;;;0.50;99.90;;;;;;21189068;28;20031;-52
2024/01/01 05:12:49;;;;;;;0.10;0.00;;;0.60;99.90;;;;;;21150269;28;20036;-46
2024/01/01 05:22:51;;;;;;;0.00;0.00;;;0.50;99.90;;;;;;21162238;28;20036;-50
2024/01/01 05:32:52;;;;;;;0.08;0.00;;;0.70;99.90;;;;;;21204096;27;20039;-51
2024/01/01 05:42:54;;;;;;;0.00;0.00;;;0.70;99.90;;;;;;21190660;27;20035;-53
2024/01/01 05:52:56;;;;;;;0.10;0.00;;;0.80;99.90;;;;;;21176684;27;20035;-42
2024/01/01 06:02:57;;;;;;;0.45;0.08;;;0.70;99.90;;;;;;21160779;28;20028;-53
2024/01/01 06:12:59;;;;;;;0.00;0.00;;;0.80;99.90;;;;;;21159548;28;20035;-43
2024/01/01 06:23:02;;;;;;;0.05;0.00;;;0.80;99.90;;;;;;21158128;28;20081;-41
2024/01/01 06:33:10;;;;;;;0.40;0.00;;;1.00;99.90;;;;;;21090757;28;20044;-43
2024/01/01 06:43:12;;;;;;;0.00;0.00;;;0.80;99.90;;;;;;21096909;28;20036;-52
2024/01/01 06:53:14;;;;;;;0.00;0.00;;;1.00;99.90;;;;;;21070684;28;20040;-42
2024/01/01 07:03:16;;;;;;;0.00;0.00;;;1.00;99.90;;;;;;21139592;28;20084;-48
2024/01/01 07:13:17;;;;;;;0.00;0.00;;;1.00;99.90;;;;;;21122648;28;20032;-45
2024/01/01 07:23:19;;;;;;;0.00;0.00;;;1.10;99.90;;;;;;21069006;28;20538;-43
2024/01/01 07:33:21;;;;;;;0.00;0.00;;;1.10;99.90;;;;;;21136126;27;20047;-46
2024/01/01 07:43:23;;;;;;;0.00;0.00;;;1.30;99.90;;;;;;21145497;27;20027;-47
2024/01/01 07:53:24;;;;;;;0.17;0.00;;;1.30;99.90;;;;;;21150823;27;20035;-48
2024/01/01 08:03:26;;;;;;;0.00;0.00;;;1.30;99.90;;;;;;21150027;28;20447;-52
2024/01/01 08:13:28;;;;;;;0.00;0.00;;;1.70;99.90;;;;;;21148342;28;20031;-48
2024/01/01 08:23:31;;;;;;;0.32;0.05;;;1.90;99.90;;;;;;21149167;28;20042;-52
2024/01/01 08:33:32;;;;;;;0.00;0.00;;;2.10;99.90;;;;;;21147393;28;20043;-52
2024/01/01 08:43:34;;;;;;;0.13;0.10;;;2.30;99.90;;;;;;21149433;28;20058;-50
2024/01/01 08:53:36;;;;;;;0.00;0.00;;;2.50;99.90;;;;;;21144962;28;20036;-48
2024/01/01 09:03:39;;;;;;;0.10;0.00;;;2.60;99.90;;;;;;21146331;28;20024;-44
2024/01/01 09:13:40;;;;;;;0.00;0.00;;;2.80;99.90;;;;;;21144561;28;20040;-43
2024/01/01 09:23:42;;;;;;;0.00;0.00;;;3.10;99.90;;;;;;21143866;28;20043;-52
2024/01/01 09:33:44;;;;;;;0.00;0.00;;;3.40;99.90;;;;;;21145799;28;20101;-50
2024/01/01 09:43:50;;;;;;;0.00;0.00;;;3.50;99.90;;;;;;21139186;28;20032;-49
2024/01/01 09:53:52;;;;;;;0.10;0.00;;;3.70;99.90;;;;;;21143438;28;20035;-49
2024/01/01 10:04:03;;;;;;;0.00;0.00;;;4.00;98.80;;;;;;21146113;28;20032;-43
2024/01/01 10:14:15;;;;;;;0.00;0.00;;;4.30;98.00;;;;;;21158778;27;20035;-50
2024/01/01 10:24:21;;;;;;;0.00;0.00;;;4.60;97.60;;;;;;21155166;28;20058;-51
2024/01/01 10:34:23;;;;;;;0.00;0.00;;;4.80;95.30;;;;;;21158950;27;20048;-56
2024/01/01 10:44:25;;;;;;;0.00;0.00;;;5.30;95.40;;;;;;21156739;27;20036;-52
2024/01/01 10:54:56;;;;;;;0.00;0.00;;;5.50;94.50;;;;;;21158739;27;20019;-51
2024/01/01 11:05:10;;;;;;;0.00;0.00;;;6.20;93.90;;;;;;20900273;28;20485;-53
2024/01/01 11:15:39;;;;;;;0.00;0.00;;;6.60;92.20;;;;;;20875234;28;20241;-49
2024/01/01 11:25:41;;;;;;;0.00;0.00;;;6.30;91.80;;;;;;20888310;28;20518;-49
2024/01/01 11:35:43;;;;;;;0.00;0.00;;;6.30;91.30;;;;;;20966136;28;20107;-49
2024/01/01 11:45:45;;;;;;;0.30;0.10;;;6.50;92.70;;;;;;21151400;27;20031;-50
2024/01/01 11:55:47;;;;;;;0.00;0.00;;;7.10;94.00;;;;;;21150547;27;20393;-52
2024/01/01 12:05:49;;;;;;;0.10;0.00;;;6.80;90.30;;;;;;21132511;27;20024;-48
2024/01/01 12:15:53;;;;;;;0.03;0.00;;;6.50;90.20;;;;;;21146751;28;20373;-52
2024/01/01 12:26:05;;;;;;;0.22;0.10;;;6.40;93.10;;;;;;21147421;28;20112;-51
2024/01/01 12:36:07;;;;;;;0.20;0.10;;;6.70;94.80;;;;;;21152700;27;20109;-49
2024/01/01 12:46:09;;;;;;;0.38;0.10;;;6.80;97.60;;;;;;21127711;28;20028;-47
2024/01/01 12:56:15;;;;;;;0.45;0.10;;;7.00;97.40;;;;;;21145897;28;20053;-55
2024/01/01 13:06:19;;;;;;;0.20;0.10;;;7.50;95.00;;;;;;21145840;28;20101;-56
2024/01/01 13:16:21;;;;;;;0.20;0.10;;;7.10;94.30;;;;;;21146122;28;20035;-53
2024/01/01 13:26:23;;;;;;;0.15;0.03;;;6.80;98.10;;;;;;21145406;28;20043;-51
2024/01/01 13:36:25;;;;;;;0.30;0.10;;;6.30;98.30;;;;;;21143843;28;20040;-50
2024/01/01 13:46:27;;;;;;;0.03;0.00;;;5.50;95.80;;;;;;21159914;28;20031;-51
2024/01/01 13:56:29;;;;;;;0.15;0.00;;;5.00;96.20;;;;;;21158976;27;20035;-51
2024/01/01 14:06:31;;;;;;;0.00;0.00;;;4.80;94.90;;;;;;21158908;28;20043;-46
2024/01/01 14:16:33;;;;;;;0.00;0.00;;;4.50;96.20;;;;;;21156940;28;20423;-47
2024/01/01 14:26:34;;;;;;;0.10;0.10;;;4.20;95.00;;;;;;21160350;27;20039;-48
2024/01/01 14:36:36;;;;;;;0.10;0.00;;;4.00;96.50;;;;;;21156207;27;20088;-50
2024/01/01 14:46:38;;;;;;;1.15;0.00;;;3.80;98.50;;;;;;21155259;28;20027;-48
2024/01/01 14:56:41;;;;;;;1.20;0.08;;;3.40;98.60;;;;;;21161315;27;20039;-43
2024/01/01 15:06:42;;;;;;;0.00;0.00;;;3.00;99.90;;;;;;21155151;27;20035;-43
2024/01/01 15:16:44;;;;;;;0.20;0.10;;;2.60;99.90;;;;;;21152948;28;20032;-51
2024/01/01 15:26:46;;;;;;;0.17;0.00;;;2.40;99.90;;;;;;21154213;27;20046;-44
2024/01/01 15:36:51;;;;;;;0.30;0.08;;;2.00;99.90;;;;;;21182939;27;20124;-44
2024/01/01 15:46:53;;;;;;;0.10;0.00;;;1.60;99.90;;;;;;21162759;27;20039;-52
2024/01/01 15:56:54;;;;;;;0.10;0.00;;;1.40;99.90;;;;;;21190554;27;20039;-51
2024/01/01 16:07:06;;;;;;;0.00;0.00;;;1.40;99.90;;;;;;20606384;27;10001402;-48
2024/01/01 16:17:09;;;;;;;0.08;0.00;;;1.40;99.90;;;;;;20784228;23;20080;-58
2024/01/01 16:27:11;;;;;;;0.00;0.00;;;1.10;99.90;;;;;;21048082;28;20032;-56
2024/01/01 16:37:13;;;;;;;0.00;0.00;;;0.80;99.90;;;;;;21067340;28;20032;-58
2024/01/01 16:47:15;;;;;;;0.28;0.00;;;0.70;99.90;;;;;;21065699;28;20040;-56
2024/01/01 16:57:18;;;;;;;0.00;0.00;;;0.60;99.90;;;;;;21064626;28;20060;-58
2024/01/01 17:07:23;;;;;;;0.15;0.00;;;0.50;99.90;;;;;;21064277;28;20028;-57
2024/01/01 17:17:25;;;;;;;1.92;0.10;;;0.40;99.90;;;;;;21073764;28;20044;-57
2024/01/01 17:27:27;;;;;;;0.52;0.00;;;0.20;99.90;;;;;;21077833;28;20220;-57
2024/01/01 17:37:29;;;;;;;0.35;0.00;;;0.10;99.90;;;;;;21079444;28;20047;-55
2024/01/01 17:47:31;;;;;;;0.85;0.00;;;0.00;99.90;;;;;;21081217;28;20028;-56
2024/01/01 17:57:33;;;;;;;2.90;0.30;;;-0.20;99.90;;;;;;21058803;28;20028;-56
2024/01/01 18:07:40;;;;;;;0.52;0.10;;;-0.40;99.90;;;;;;21078695;28;20044;-56
2024/01/01 18:17:42;;;;;;;2.20;0.90;;;-0.40;99.90;;;;;;21078312;28;20036;-57
2024/01/01 18:27:44;;;;;;;0.00;0.00;;;-0.40;99.90;;;;;;21076238;28;20032;-57
2024/01/01 18:37:46;;;;;;;0.00;0.00;;;-0.60;99.90;;;;;;21075758;28;20036;-57
2024/01/01 18:47:47;;;;;;;0.00;0.00;;;-0.50;99.90;;;;;;21075138;28;20032;-57
2024/01/01 18:57:49;;;;;;;0.20;0.00;;;-0.60;99.90;;;;;;21073857;28;20042;-57
2024/01/01 19:07:51;;;;;;;0.08;0.00;;;-0.80;99.90;;;;;;21074580;28;20474;-56
2024/01/01 19:17:53;;;;;;;0.00;0.00;;;-0.80;99.90;;;;;;21073675;28;20040;-57
2024/01/01 19:27:55;;;;;;;0.00;0.00;;;-0.70;99.90;;;;;;21072689;28;20059;-57
2024/01/01 19:37:56;;;;;;;0.32;0.10;;;-0.70;99.90;;;;;;21071470;28;20047;-55
2024/01/01 19:47:58;;;;;;;0.00;0.00;;;-0.90;99.90;;;;;;21071487;28;20036;-57
2024/01/01 19:58:00;;;;;;;0.00;0.00;;;-1.00;99.90;;;;;;21070000;28;20036;-57
2024/01/01 20:08:02;;;;;;;0.00;0.00;;;-1.10;99.90;;;;;;21050969;28;20036;-57
2024/01/01 20:18:04;;;;;;;0.10;0.00;;;-1.20;99.90;;;;;;21066887;28;20044;-57
2024/01/01 20:28:06;;;;;;;0.00;0.00;;;-1.10;99.90;;;;;;21066836;28;20555;-57
2024/01/01 20:38:08;;;;;;;0.00;0.00;;;-1.00;99.90;;;;;;21061978;28;20036;-57
2024/01/01 20:48:10;;;;;;;0.10;0.00;;;-0.70;99.90;;;;;;21048373;28;20032;-58
2024/01/01 20:58:13;;;;;;;0.00;0.00;;;-1.00;99.90;;;;;;21065655;28;20028;-56
2024/01/01 21:08:18;;;;;;;0.30;0.00;;;-1.10;99.90;;;;;;21058887;28;20028;-56
2024/01/01 21:18:21;;;;;;;0.00;0.00;;;-1.10;99.90;;;;;;21047551;28;20474;-56
2024/01/01 21:28:23;;;;;;;0.00;0.00;;;-1.10;99.90;;;;;;21063923;28;20074;-56
2024/01/01 21:38:25;;;;;;;0.85;0.00;;;-1.00;99.90;;;;;;21064823;28;20036;-56
2024/01/01 21:48:27;;;;;;;0.00;0.00;;;-1.30;99.90;;;;;;21042863;28;20090;-57
2024/01/01 21:58:29;;;;;;;0.00;0.00;;;-1.40;99.90;;;;;;21061112;28;20040;-56
2024/01/01 22:08:34;;;;;;;0.00;0.00;;;-1.30;99.90;;;;;;21057320;28;20036;-56
2024/01/01 22:18:36;;;;;;;0.50;0.10;;;-1.10;99.90;;;;;;21076975;28;20389;-57
2024/01/01 22:28:38;;;;;;;0.00;0.00;;;-1.20;99.90;;;;;;21073445;28;20024;-51
2024/01/01 22:38:40;;;;;;;0.00;0.00;;;-1.30;99.90;;;;;;21076649;28;20371;-57
2024/01/01 22:48:42;;;;;;;0.10;0.00;;;-1.40;99.90;;;;;;21076128;28;20032;-57
2024/01/01 22:58:43;;;;;;;0.75;0.00;;;-1.30;99.90;;;;;;21075114;28;20040;-56
2024/01/01 23:08:45;;;;;;;0.15;0.00;;;-1.50;99.90;;;;;;21056195;28;20036;-54
2024/01/01 23:18:48;;;;;;;0.30;0.00;;;-1.50;99.90;;;;;;21072660;28;20036;-57
2024/01/01 23:28:52;;;;;;;0.03;0.00;;;-1.60;99.90;;;;;;21072819;28;20028;-55
2024/01/01 23:38:54;;;;;;;0.00;0.00;;;-1.60;99.90;;;;;;21072426;28;20035;-57
2024/01/01 23:48:59;;;;;;;0.40;0.00;;;-1.60;99.90;;;;;;21072061;28;20036;-57
2024/01/01 23:59:01;;;;;;;0.00;0.00;;;-1.80;99.90;;;;;;21070565;28;20032;-57
